sensor_id;sensor_type;location;lat;lon;timestamp;pressure;altitude;pressure_sealevel;temperature;humidity
46223;BME280;31943;51.410;7.564;2023-11-22T00:00:03;101251.72;;;7.02;69.33
46223;BME280;31943;51.410;7.564;2023-11-22T00:02:29;101255.25;;;7.04;69.43
46223;BME280;31943;51.410;7.564;2023-11-22T00:04:54;101243.88;;;7.00;69.38
46223;BME280;31943;51.410;7.564;2023-11-22T00:07:20;101250.75;;;7.00;69.41
46223;BME280;31943;51.410;7.564;2023-11-22T00:09:47;101247.91;;;6.93;69.79
46223;BME280;31943;51.410;7.564;2023-11-22T00:12:13;101250.41;;;6.90;69.24
46223;BME280;31943;51.410;7.564;2023-11-22T00:14:39;101254.56;;;6.87;69.18
46223;BME280;31943;51.410;7.564;2023-11-22T00:17:05;101256.16;;;6.83;69.68
46223;BME280;31943;51.410;7.564;2023-11-22T00:19:31;101249.38;;;6.87;69.92
46223;BME280;31943;51.410;7.564;2023-11-22T00:21:57;101246.22;;;6.94;70.04
46223;BME280;31943;51.410;7.564;2023-11-22T00:24:22;101254.03;;;6.96;69.78
46223;BME280;31943;51.410;7.564;2023-11-22T00:26:49;101258.34;;;6.95;69.63
46223;BME280;31943;51.410;7.564;2023-11-22T00:29:15;101254.31;;;7.02;69.58
46223;BME280;31943;51.410;7.564;2023-11-22T00:31:41;101263.94;;;7.04;69.85
46223;BME280;31943;51.410;7.564;2023-11-22T00:34:08;101268.34;;;7.07;70.01
46223;BME280;31943;51.410;7.564;2023-11-22T00:36:33;101273.47;;;7.05;69.69
46223;BME280;31943;51.410;7.564;2023-11-22T00:38:59;101274.31;;;7.04;69.75
46223;BME280;31943;51.410;7.564;2023-11-22T00:41:30;101273.28;;;7.01;69.65
46223;BME280;31943;51.410;7.564;2023-11-22T00:43:57;101268.97;;;7.01;69.60
46223;BME280;31943;51.410;7.564;2023-11-22T00:46:22;101275.81;;;6.99;69.58
46223;BME280;31943;51.410;7.564;2023-11-22T00:48:48;101271.50;;;7.00;69.93
46223;BME280;31943;51.410;7.564;2023-11-22T00:51:14;101273.03;;;6.95;69.23
46223;BME280;31943;51.410;7.564;2023-11-22T00:53:41;101277.91;;;6.87;69.58
46223;BME280;31943;51.410;7.564;2023-11-22T00:56:08;101285.53;;;6.82;69.69
46223;BME280;31943;51.410;7.564;2023-11-22T00:58:33;101280.44;;;6.85;69.97
46223;BME280;31943;51.410;7.564;2023-11-22T01:01:00;101281.38;;;6.87;69.54
46223;BME280;31943;51.410;7.564;2023-11-22T01:03:26;101282.84;;;6.81;69.67
46223;BME280;31943;51.410;7.564;2023-11-22T01:05:52;101277.34;;;6.73;69.61
46223;BME280;31943;51.410;7.564;2023-11-22T01:08:17;101277.59;;;6.79;70.11
46223;BME280;31943;51.410;7.564;2023-11-22T01:10:43;101282.59;;;6.75;69.61
46223;BME280;31943;51.410;7.564;2023-11-22T01:13:09;101280.69;;;6.70;69.95
46223;BME280;31943;51.410;7.564;2023-11-22T01:15:34;101284.19;;;6.71;70.03
46223;BME280;31943;51.410;7.564;2023-11-22T01:18:03;101289.47;;;6.74;70.31
46223;BME280;31943;51.410;7.564;2023-11-22T01:20:28;101297.25;;;6.74;69.89
46223;BME280;31943;51.410;7.564;2023-11-22T01:22:54;101299.66;;;6.69;70.14
46223;BME280;31943;51.410;7.564;2023-11-22T01:25:20;101299.59;;;6.68;70.14
46223;BME280;31943;51.410;7.564;2023-11-22T01:27:46;101302.25;;;6.69;70.17
46223;BME280;31943;51.410;7.564;2023-11-22T01:30:12;101297.00;;;6.68;69.55
46223;BME280;31943;51.410;7.564;2023-11-22T01:32:38;101299.41;;;6.63;69.98
46223;BME280;31943;51.410;7.564;2023-11-22T01:35:07;101295.03;;;6.62;70.22
46223;BME280;31943;51.410;7.564;2023-11-22T01:37:33;101303.72;;;6.63;70.21
46223;BME280;31943;51.410;7.564;2023-11-22T01:39:58;101296.63;;;6.59;70.20
46223;BME280;31943;51.410;7.564;2023-11-22T01:42:24;101297.25;;;6.53;70.78
46223;BME280;31943;51.410;7.564;2023-11-22T01:44:50;101312.19;;;6.59;70.82
46223;BME280;31943;51.410;7.564;2023-11-22T01:47:15;101322.69;;;6.62;70.09
46223;BME280;31943;51.410;7.564;2023-11-22T01:49:42;101326.56;;;6.52;70.11
46223;BME280;31943;51.410;7.564;2023-11-22T01:52:10;101329.78;;;6.46;70.38
46223;BME280;31943;51.410;7.564;2023-11-22T01:54:35;101326.31;;;6.46;70.19
46223;BME280;31943;51.410;7.564;2023-11-22T01:57:02;101323.53;;;6.41;70.73
46223;BME280;31943;51.410;7.564;2023-11-22T01:59:29;101318.53;;;6.46;70.74
46223;BME280;31943;51.410;7.564;2023-11-22T02:01:55;101324.69;;;6.48;70.69
46223;BME280;31943;51.410;7.564;2023-11-22T02:04:21;101321.31;;;6.50;70.45
46223;BME280;31943;51.410;7.564;2023-11-22T02:06:46;101329.06;;;6.49;70.16
46223;BME280;31943;51.410;7.564;2023-11-22T02:09:14;101332.38;;;6.46;69.55
46223;BME280;31943;51.410;7.564;2023-11-22T02:11:40;101332.81;;;6.36;69.87
46223;BME280;31943;51.410;7.564;2023-11-22T02:14:05;101334.44;;;6.34;70.24
46223;BME280;31943;51.410;7.564;2023-11-22T02:16:31;101341.09;;;6.29;69.89
46223;BME280;31943;51.410;7.564;2023-11-22T02:18:57;101345.50;;;6.30;70.09
46223;BME280;31943;51.410;7.564;2023-11-22T02:21:24;101349.13;;;6.33;70.31
46223;BME280;31943;51.410;7.564;2023-11-22T02:23:52;101354.66;;;6.41;69.74
46223;BME280;31943;51.410;7.564;2023-11-22T02:26:17;101353.53;;;6.36;68.97
46223;BME280;31943;51.410;7.564;2023-11-22T02:28:43;101352.78;;;6.19;69.34
46223;BME280;31943;51.410;7.564;2023-11-22T02:31:09;101359.59;;;6.17;69.85
46223;BME280;31943;51.410;7.564;2023-11-22T02:33:35;101368.41;;;6.21;70.11
46223;BME280;31943;51.410;7.564;2023-11-22T02:36:00;101371.81;;;6.20;69.53
46223;BME280;31943;51.410;7.564;2023-11-22T02:38:26;101372.50;;;6.16;68.62
46223;BME280;31943;51.410;7.564;2023-11-22T02:40:54;101375.91;;;6.14;69.17
46223;BME280;31943;51.410;7.564;2023-11-22T02:43:20;101374.19;;;6.15;68.58
46223;BME280;31943;51.410;7.564;2023-11-22T02:45:46;101371.66;;;6.17;68.87
46223;BME280;31943;51.410;7.564;2023-11-22T02:48:11;101375.97;;;6.16;69.15
46223;BME280;31943;51.410;7.564;2023-11-22T02:50:37;101370.56;;;6.11;69.02
46223;BME280;31943;51.410;7.564;2023-11-22T02:53:04;101368.94;;;6.13;69.23
46223;BME280;31943;51.410;7.564;2023-11-22T02:55:31;101375.22;;;6.19;69.01
46223;BME280;31943;51.410;7.564;2023-11-22T02:57:58;101378.00;;;6.23;69.04
46223;BME280;31943;51.410;7.564;2023-11-22T03:00:24;101377.41;;;6.29;68.98
46223;BME280;31943;51.410;7.564;2023-11-22T03:02:49;101374.19;;;6.34;68.38
46223;BME280;31943;51.410;7.564;2023-11-22T03:05:15;101371.84;;;6.39;68.50
46223;BME280;31943;51.410;7.564;2023-11-22T03:07:41;101369.44;;;6.44;68.55
46223;BME280;31943;51.410;7.564;2023-11-22T03:10:07;101376.47;;;6.46;68.12
46223;BME280;31943;51.410;7.564;2023-11-22T03:12:34;101373.88;;;6.46;68.01
46223;BME280;31943;51.410;7.564;2023-11-22T03:15:03;101373.06;;;6.47;67.66
46223;BME280;31943;51.410;7.564;2023-11-22T03:17:29;101388.63;;;6.47;67.60
46223;BME280;31943;51.410;7.564;2023-11-22T03:19:58;101385.69;;;6.40;67.11
46223;BME280;31943;51.410;7.564;2023-11-22T03:22:24;101399.16;;;6.32;66.94
46223;BME280;31943;51.410;7.564;2023-11-22T03:24:50;101396.38;;;6.28;66.87
46223;BME280;31943;51.410;7.564;2023-11-22T03:27:16;101404.69;;;6.21;66.72
46223;BME280;31943;51.410;7.564;2023-11-22T03:29:41;101409.59;;;6.14;66.67
46223;BME280;31943;51.410;7.564;2023-11-22T03:32:08;101402.56;;;6.12;66.54
46223;BME280;31943;51.410;7.564;2023-11-22T03:34:35;101413.81;;;6.12;66.50
46223;BME280;31943;51.410;7.564;2023-11-22T03:37:01;101407.75;;;6.12;66.89
46223;BME280;31943;51.410;7.564;2023-11-22T03:39:26;101416.47;;;6.14;66.96
46223;BME280;31943;51.410;7.564;2023-11-22T03:41:52;101421.75;;;6.16;66.88
46223;BME280;31943;51.410;7.564;2023-11-22T03:44:18;101418.31;;;6.17;66.98
46223;BME280;31943;51.410;7.564;2023-11-22T03:46:43;101428.75;;;6.18;66.94
46223;BME280;31943;51.410;7.564;2023-11-22T03:49:10;101433.13;;;6.19;66.98
46223;BME280;31943;51.410;7.564;2023-11-22T03:51:39;101435.78;;;6.21;66.85
46223;BME280;31943;51.410;7.564;2023-11-22T03:54:05;101431.44;;;6.20;66.49
46223;BME280;31943;51.410;7.564;2023-11-22T03:56:31;101436.47;;;6.17;66.27
46223;BME280;31943;51.410;7.564;2023-11-22T03:58:57;101432.91;;;6.14;66.54
46223;BME280;31943;51.410;7.564;2023-11-22T04:01:23;101437.13;;;6.12;66.56
46223;BME280;31943;51.410;7.564;2023-11-22T04:03:48;101444.75;;;6.09;66.50
46223;BME280;31943;51.410;7.564;2023-11-22T04:06:17;101453.28;;;6.07;66.16
46223;BME280;31943;51.410;7.564;2023-11-22T04:08:44;101459.94;;;6.02;66.10
46223;BME280;31943;51.410;7.564;2023-11-22T04:11:18;101467.56;;;5.99;66.17
46223;BME280;31943;51.410;7.564;2023-11-22T04:13:43;101475.09;;;5.94;66.17
46223;BME280;31943;51.410;7.564;2023-11-22T04:16:09;101488.78;;;5.91;66.18
46223;BME280;31943;51.410;7.564;2023-11-22T04:18:35;101492.91;;;5.88;66.25
46223;BME280;31943;51.410;7.564;2023-11-22T04:21:02;101503.22;;;5.86;66.36
46223;BME280;31943;51.410;7.564;2023-11-22T04:23:29;101506.53;;;5.84;66.24
46223;BME280;31943;51.410;7.564;2023-11-22T04:25:56;101511.72;;;5.84;66.14
46223;BME280;31943;51.410;7.564;2023-11-22T04:28:22;101511.50;;;5.79;66.12
46223;BME280;31943;51.410;7.564;2023-11-22T04:30:47;101516.59;;;5.78;65.87
46223;BME280;31943;51.410;7.564;2023-11-22T04:33:13;101514.66;;;5.73;66.01
46223;BME280;31943;51.410;7.564;2023-11-22T04:35:39;101521.31;;;5.68;65.71
46223;BME280;31943;51.410;7.564;2023-11-22T04:38:05;101515.91;;;5.64;65.72
46223;BME280;31943;51.410;7.564;2023-11-22T04:40:32;101513.09;;;5.59;65.66
46223;BME280;31943;51.410;7.564;2023-11-22T04:42:57;101498.22;;;5.55;65.41
46223;BME280;31943;51.410;7.564;2023-11-22T04:45:23;101492.00;;;5.51;65.23
46223;BME280;31943;51.410;7.564;2023-11-22T04:47:49;101492.75;;;5.49;65.28
46223;BME280;31943;51.410;7.564;2023-11-22T04:50:15;101498.63;;;5.46;65.46
46223;BME280;31943;51.410;7.564;2023-11-22T04:52:40;101489.81;;;5.43;65.25
46223;BME280;31943;51.410;7.564;2023-11-22T04:55:07;101497.34;;;5.38;65.29
46223;BME280;31943;51.410;7.564;2023-11-22T04:57:34;101498.00;;;5.34;65.11
46223;BME280;31943;51.410;7.564;2023-11-22T05:00:00;101490.06;;;5.31;65.56
46223;BME280;31943;51.410;7.564;2023-11-22T05:02:26;101490.03;;;5.29;65.38
46223;BME280;31943;51.410;7.564;2023-11-22T05:04:54;101489.06;;;5.27;65.23
46223;BME280;31943;51.410;7.564;2023-11-22T05:07:21;101487.19;;;5.25;65.30
46223;BME280;31943;51.410;7.564;2023-11-22T05:09:46;101483.53;;;5.21;65.05
46223;BME280;31943;51.410;7.564;2023-11-22T05:12:12;101492.88;;;5.18;65.11
46223;BME280;31943;51.410;7.564;2023-11-22T05:14:39;101493.44;;;5.12;64.98
46223;BME280;31943;51.410;7.564;2023-11-22T05:17:05;101504.44;;;5.08;65.15
46223;BME280;31943;51.410;7.564;2023-11-22T05:19:31;101503.53;;;5.07;65.27
46223;BME280;31943;51.410;7.564;2023-11-22T05:21:58;101512.03;;;5.05;64.92
46223;BME280;31943;51.410;7.564;2023-11-22T05:24:23;101519.59;;;5.02;64.73
46223;BME280;31943;51.410;7.564;2023-11-22T05:26:49;101532.41;;;4.99;64.80
46223;BME280;31943;51.410;7.564;2023-11-22T05:29:15;101537.50;;;4.97;64.79
46223;BME280;31943;51.410;7.564;2023-11-22T05:31:43;101535.63;;;4.94;64.60
46223;BME280;31943;51.410;7.564;2023-11-22T05:34:08;101532.88;;;4.91;64.76
46223;BME280;31943;51.410;7.564;2023-11-22T05:36:34;101553.41;;;4.88;64.67
46223;BME280;31943;51.410;7.564;2023-11-22T05:39:00;101553.25;;;4.85;64.64
46223;BME280;31943;51.410;7.564;2023-11-22T05:41:27;101545.38;;;4.84;64.98
46223;BME280;31943;51.410;7.564;2023-11-22T05:43:53;101552.25;;;4.83;64.90
46223;BME280;31943;51.410;7.564;2023-11-22T05:46:19;101558.16;;;4.81;64.67
46223;BME280;31943;51.410;7.564;2023-11-22T05:48:46;101571.81;;;4.78;64.96
46223;BME280;31943;51.410;7.564;2023-11-22T05:51:12;101563.25;;;4.79;65.04
46223;BME280;31943;51.410;7.564;2023-11-22T05:53:39;101564.97;;;4.79;64.90
46223;BME280;31943;51.410;7.564;2023-11-22T05:56:05;101551.84;;;4.75;65.07
46223;BME280;31943;51.410;7.564;2023-11-22T05:58:31;101551.75;;;4.74;64.95
46223;BME280;31943;51.410;7.564;2023-11-22T06:00:57;101551.75;;;4.74;65.06
46223;BME280;31943;51.410;7.564;2023-11-22T06:03:24;101555.16;;;4.73;64.99
46223;BME280;31943;51.410;7.564;2023-11-22T06:05:51;101555.06;;;4.71;65.03
46223;BME280;31943;51.410;7.564;2023-11-22T06:08:17;101550.69;;;4.70;65.01
46223;BME280;31943;51.410;7.564;2023-11-22T06:10:42;101558.31;;;4.67;64.88
46223;BME280;31943;51.410;7.564;2023-11-22T06:13:09;101560.78;;;4.66;64.88
46223;BME280;31943;51.410;7.564;2023-11-22T06:15:35;101557.25;;;4.64;64.52
46223;BME280;31943;51.410;7.564;2023-11-22T06:18:01;101561.44;;;4.62;64.82
46223;BME280;31943;51.410;7.564;2023-11-22T06:20:28;101562.16;;;4.59;64.52
46223;BME280;31943;51.410;7.564;2023-11-22T06:22:56;101561.09;;;4.55;64.87
46223;BME280;31943;51.410;7.564;2023-11-22T06:25:22;101563.50;;;4.52;64.64
46223;BME280;31943;51.410;7.564;2023-11-22T06:27:51;101569.41;;;4.50;64.73
46223;BME280;31943;51.410;7.564;2023-11-22T06:30:17;101567.66;;;4.49;64.69
46223;BME280;31943;51.410;7.564;2023-11-22T06:32:43;101567.56;;;4.47;64.79
46223;BME280;31943;51.410;7.564;2023-11-22T06:35:09;101568.00;;;4.40;64.87
46223;BME280;31943;51.410;7.564;2023-11-22T06:37:36;101572.13;;;4.22;65.61
46223;BME280;31943;51.410;7.564;2023-11-22T06:40:22;101570.78;;;4.13;66.10
46223;BME280;31943;51.410;7.564;2023-11-22T06:42:51;101579.34;;;4.12;65.86
46223;BME280;31943;51.410;7.564;2023-11-22T06:45:18;101571.06;;;4.18;65.47
46223;BME280;31943;51.410;7.564;2023-11-22T06:47:44;101579.91;;;4.22;64.94
46223;BME280;31943;51.410;7.564;2023-11-22T06:50:10;101575.50;;;4.21;65.06
46223;BME280;31943;51.410;7.564;2023-11-22T06:52:37;101571.41;;;4.24;64.85
46223;BME280;31943;51.410;7.564;2023-11-22T06:55:03;101574.78;;;4.23;64.70
46223;BME280;31943;51.410;7.564;2023-11-22T07:04:12;101573.66;;;4.18;64.04
46223;BME280;31943;51.410;7.564;2023-11-22T07:09:25;101573.31;;;4.12;64.12
46223;BME280;31943;51.410;7.564;2023-11-22T07:14:40;101572.25;;;4.08;63.86
46223;BME280;31943;51.410;7.564;2023-11-22T07:17:08;101579.69;;;4.04;63.86
46223;BME280;31943;51.410;7.564;2023-11-22T07:19:44;101580.53;;;4.03;64.23
46223;BME280;31943;51.410;7.564;2023-11-22T07:22:38;101585.69;;;4.03;64.11
46223;BME280;31943;51.410;7.564;2023-11-22T07:25:05;101598.59;;;4.03;64.28
46223;BME280;31943;51.410;7.564;2023-11-22T07:27:36;101592.56;;;4.02;64.01
46223;BME280;31943;51.410;7.564;2023-11-22T07:30:03;101598.59;;;4.03;64.25
46223;BME280;31943;51.410;7.564;2023-11-22T07:32:28;101610.69;;;4.04;64.32
46223;BME280;31943;51.410;7.564;2023-11-22T07:34:56;101619.38;;;4.04;64.27
46223;BME280;31943;51.410;7.564;2023-11-22T07:37:23;101629.69;;;4.04;64.28
46223;BME280;31943;51.410;7.564;2023-11-22T07:39:50;101634.84;;;4.04;64.16
46223;BME280;31943;51.410;7.564;2023-11-22T07:42:16;101649.44;;;4.04;64.27
46223;BME280;31943;51.410;7.564;2023-11-22T07:44:43;101653.72;;;4.03;64.41
46223;BME280;31943;51.410;7.564;2023-11-22T07:47:08;101650.34;;;4.04;64.49
46223;BME280;31943;51.410;7.564;2023-11-22T07:49:45;101651.34;;;4.06;64.40
46223;BME280;31943;51.410;7.564;2023-11-22T07:52:12;101646.28;;;4.08;64.46
46223;BME280;31943;51.410;7.564;2023-11-22T07:54:38;101662.13;;;4.14;64.93
46223;BME280;31943;51.410;7.564;2023-11-22T07:57:04;101651.94;;;4.17;64.92
46223;BME280;31943;51.410;7.564;2023-11-22T07:59:30;101650.34;;;4.19;64.82
46223;BME280;31943;51.410;7.564;2023-11-22T08:01:56;101647.75;;;4.19;64.65
46223;BME280;31943;51.410;7.564;2023-11-22T08:04:21;101644.38;;;4.20;64.38
46223;BME280;31943;51.410;7.564;2023-11-22T08:06:47;101643.56;;;4.21;64.64
46223;BME280;31943;51.410;7.564;2023-11-22T08:09:14;101629.00;;;4.22;64.36
46223;BME280;31943;51.410;7.564;2023-11-22T08:11:40;101617.84;;;4.23;64.83
46223;BME280;31943;51.410;7.564;2023-11-22T08:14:05;101597.34;;;4.26;64.83
46223;BME280;31943;51.410;7.564;2023-11-22T08:16:31;101589.75;;;4.29;64.66
46223;BME280;31943;51.410;7.564;2023-11-22T08:18:57;101594.13;;;4.30;64.57
46223;BME280;31943;51.410;7.564;2023-11-22T08:21:23;101601.25;;;4.34;64.74
46223;BME280;31943;51.410;7.564;2023-11-22T08:23:49;101598.81;;;4.37;64.81
46223;BME280;31943;51.410;7.564;2023-11-22T08:26:16;101605.06;;;4.41;64.88
46223;BME280;31943;51.410;7.564;2023-11-22T08:28:42;101596.69;;;4.45;64.97
46223;BME280;31943;51.410;7.564;2023-11-22T08:31:08;101593.31;;;4.46;64.85
46223;BME280;31943;51.410;7.564;2023-11-22T08:33:33;101616.81;;;4.50;65.19
46223;BME280;31943;51.410;7.564;2023-11-22T08:35:59;101622.16;;;4.53;65.05
46223;BME280;31943;51.410;7.564;2023-11-22T08:38:25;101628.41;;;4.57;64.88
46223;BME280;31943;51.410;7.564;2023-11-22T08:40:51;101639.81;;;4.61;65.10
46223;BME280;31943;51.410;7.564;2023-11-22T08:43:18;101652.91;;;4.64;64.87
46223;BME280;31943;51.410;7.564;2023-11-22T08:45:44;101667.34;;;4.60;64.52
46223;BME280;31943;51.410;7.564;2023-11-22T08:48:10;101676.28;;;4.50;64.41
46223;BME280;31943;51.410;7.564;2023-11-22T08:50:36;101686.16;;;4.43;64.31
46223;BME280;31943;51.410;7.564;2023-11-22T08:53:03;101699.72;;;4.24;64.38
46223;BME280;31943;51.410;7.564;2023-11-22T08:55:30;101709.31;;;4.11;64.82
46223;BME280;31943;51.410;7.564;2023-11-22T08:58:02;101714.75;;;4.01;65.04
46223;BME280;31943;51.410;7.564;2023-11-22T09:00:32;101702.50;;;3.84;65.36
46223;BME280;31943;51.410;7.564;2023-11-22T09:02:59;101694.75;;;3.84;65.42
46223;BME280;31943;51.410;7.564;2023-11-22T09:05:24;101703.69;;;3.89;65.67
46223;BME280;31943;51.410;7.564;2023-11-22T09:07:50;101710.72;;;3.91;65.46
46223;BME280;31943;51.410;7.564;2023-11-22T09:10:16;101718.91;;;3.99;65.99
46223;BME280;31943;51.410;7.564;2023-11-22T09:12:44;101714.47;;;3.96;65.83
46223;BME280;31943;51.410;7.564;2023-11-22T09:15:11;101697.72;;;4.05;66.29
46223;BME280;31943;51.410;7.564;2023-11-22T09:17:39;101698.75;;;4.22;66.03
46223;BME280;31943;51.410;7.564;2023-11-22T09:20:06;101692.78;;;4.38;66.02
46223;BME280;31943;51.410;7.564;2023-11-22T09:22:34;101676.72;;;4.58;65.77
46223;BME280;31943;51.410;7.564;2023-11-22T09:25:00;101678.66;;;4.77;65.46
46223;BME280;31943;51.410;7.564;2023-11-22T09:27:26;101687.28;;;4.92;65.36
46223;BME280;31943;51.410;7.564;2023-11-22T09:29:52;101686.44;;;5.08;65.15
46223;BME280;31943;51.410;7.564;2023-11-22T09:32:18;101674.16;;;5.21;65.14
46223;BME280;31943;51.410;7.564;2023-11-22T09:34:46;101671.19;;;5.29;64.93
46223;BME280;31943;51.410;7.564;2023-11-22T09:37:13;101679.38;;;5.37;64.72
46223;BME280;31943;51.410;7.564;2023-11-22T09:39:39;101672.97;;;5.47;64.92
46223;BME280;31943;51.410;7.564;2023-11-22T09:42:05;101665.59;;;5.54;64.45
46223;BME280;31943;51.410;7.564;2023-11-22T09:44:31;101653.97;;;5.63;64.39
46223;BME280;31943;51.410;7.564;2023-11-22T09:46:57;101646.66;;;5.72;64.29
46223;BME280;31943;51.410;7.564;2023-11-22T09:49:28;101660.94;;;5.80;64.49
46223;BME280;31943;51.410;7.564;2023-11-22T09:52:08;101667.41;;;5.88;64.08
46223;BME280;31943;51.410;7.564;2023-11-22T09:54:37;101668.63;;;5.95;64.18
46223;BME280;31943;51.410;7.564;2023-11-22T09:57:04;101664.63;;;6.02;64.18
46223;BME280;31943;51.410;7.564;2023-11-22T09:59:30;101664.81;;;6.05;63.98
46223;BME280;31943;51.410;7.564;2023-11-22T10:01:57;101664.06;;;6.07;63.52
46223;BME280;31943;51.410;7.564;2023-11-22T10:04:22;101667.63;;;6.09;63.29
46223;BME280;31943;51.410;7.564;2023-11-22T10:06:49;101661.72;;;5.96;61.60
46223;BME280;31943;51.410;7.564;2023-11-22T10:09:17;101659.38;;;5.84;60.80
46223;BME280;31943;51.410;7.564;2023-11-22T10:11:42;101659.13;;;5.79;61.33
46223;BME280;31943;51.410;7.564;2023-11-22T10:14:08;101665.59;;;5.87;60.72
46223;BME280;31943;51.410;7.564;2023-11-22T10:16:34;101671.31;;;5.80;60.02
46223;BME280;31943;51.410;7.564;2023-11-22T10:19:03;101666.41;;;5.70;59.77
46223;BME280;31943;51.410;7.564;2023-11-22T10:21:29;101665.47;;;5.68;59.96
46223;BME280;31943;51.410;7.564;2023-11-22T10:23:56;101660.69;;;5.75;60.15
46223;BME280;31943;51.410;7.564;2023-11-22T10:26:25;101660.19;;;5.83;60.35
46223;BME280;31943;51.410;7.564;2023-11-22T10:28:51;101657.91;;;5.89;60.54
46223;BME280;31943;51.410;7.564;2023-11-22T10:31:17;101656.63;;;5.97;60.38
46223;BME280;31943;51.410;7.564;2023-11-22T10:33:43;101656.25;;;6.06;60.55
46223;BME280;31943;51.410;7.564;2023-11-22T10:36:09;101658.81;;;6.06;59.59
46223;BME280;31943;51.410;7.564;2023-11-22T10:38:35;101665.56;;;6.02;59.75
46223;BME280;31943;51.410;7.564;2023-11-22T10:41:03;101663.84;;;6.03;59.19
46223;BME280;31943;51.410;7.564;2023-11-22T10:43:31;101667.78;;;6.12;59.85
46223;BME280;31943;51.410;7.564;2023-11-22T10:45:57;101666.34;;;6.18;59.01
46223;BME280;31943;51.410;7.564;2023-11-22T10:48:23;101668.00;;;6.17;58.26
46223;BME280;31943;51.410;7.564;2023-11-22T10:50:50;101670.22;;;6.09;58.11
46223;BME280;31943;51.410;7.564;2023-11-22T10:53:17;101662.53;;;6.11;58.40
46223;BME280;31943;51.410;7.564;2023-11-22T10:55:46;101660.81;;;6.11;57.06
46223;BME280;31943;51.410;7.564;2023-11-22T10:58:14;101652.66;;;5.87;56.68
46223;BME280;31943;51.410;7.564;2023-11-22T11:00:43;101647.81;;;5.77;57.35
46223;BME280;31943;51.410;7.564;2023-11-22T11:03:14;101662.47;;;5.77;56.68
46223;BME280;31943;51.410;7.564;2023-11-22T11:05:49;101655.19;;;5.69;57.31
46223;BME280;31943;51.410;7.564;2023-11-22T11:08:17;101655.28;;;5.71;57.06
46223;BME280;31943;51.410;7.564;2023-11-22T11:10:44;101663.19;;;5.74;57.21
46223;BME280;31943;51.410;7.564;2023-11-22T11:13:10;101658.72;;;5.88;57.55
46223;BME280;31943;51.410;7.564;2023-11-22T11:15:36;101645.69;;;6.03;57.69
46223;BME280;31943;51.410;7.564;2023-11-22T11:18:05;101649.47;;;6.09;57.73
46223;BME280;31943;51.410;7.564;2023-11-22T11:20:44;101656.19;;;6.22;57.80
46223;BME280;31943;51.410;7.564;2023-11-22T11:23:12;101651.91;;;6.41;57.63
46223;BME280;31943;51.410;7.564;2023-11-22T11:25:37;101648.31;;;6.55;58.08
46223;BME280;31943;51.410;7.564;2023-11-22T11:28:03;101645.50;;;6.68;58.04
46223;BME280;31943;51.410;7.564;2023-11-22T11:30:45;101644.38;;;6.81;58.09
46223;BME280;31943;51.410;7.564;2023-11-22T11:33:14;101642.22;;;6.90;58.04
46223;BME280;31943;51.410;7.564;2023-11-22T11:35:45;101640.03;;;7.00;57.62
46223;BME280;31943;51.410;7.564;2023-11-22T11:38:13;101635.16;;;7.06;58.04
46223;BME280;31943;51.410;7.564;2023-11-22T11:40:40;101628.72;;;7.17;57.60
46223;BME280;31943;51.410;7.564;2023-11-22T11:43:10;101625.69;;;7.26;56.96
46223;BME280;31943;51.410;7.564;2023-11-22T11:45:37;101629.50;;;7.34;57.00
46223;BME280;31943;51.410;7.564;2023-11-22T11:48:04;101635.94;;;7.42;57.09
46223;BME280;31943;51.410;7.564;2023-11-22T11:50:32;101643.03;;;7.46;56.61
46223;BME280;31943;51.410;7.564;2023-11-22T11:52:58;101634.69;;;7.53;56.16
46223;BME280;31943;51.410;7.564;2023-11-22T11:55:27;101635.81;;;7.59;55.58
46223;BME280;31943;51.410;7.564;2023-11-22T11:57:53;101622.13;;;7.63;55.10
46223;BME280;31943;51.410;7.564;2023-11-22T12:00:21;101622.75;;;7.57;53.91
46223;BME280;31943;51.410;7.564;2023-11-22T12:02:48;101620.88;;;7.55;54.26
46223;BME280;31943;51.410;7.564;2023-11-22T12:05:14;101620.88;;;7.55;54.95
46223;BME280;31943;51.410;7.564;2023-11-22T12:07:41;101604.56;;;7.38;54.37
46223;BME280;31943;51.410;7.564;2023-11-22T12:10:08;101590.09;;;7.23;55.21
46223;BME280;31943;51.410;7.564;2023-11-22T12:12:37;101578.09;;;7.07;55.02
46223;BME280;31943;51.410;7.564;2023-11-22T12:15:04;101568.47;;;7.05;55.25
46223;BME280;31943;51.410;7.564;2023-11-22T12:17:32;101555.84;;;7.12;55.33
46223;BME280;31943;51.410;7.564;2023-11-22T12:20:10;101541.06;;;7.31;55.38
46223;BME280;31943;51.410;7.564;2023-11-22T12:22:36;101528.72;;;7.45;55.40
46223;BME280;31943;51.410;7.564;2023-11-22T12:25:04;101500.66;;;7.57;55.66
46223;BME280;31943;51.410;7.564;2023-11-22T12:27:30;101500.91;;;7.63;55.92
46223;BME280;31943;51.410;7.564;2023-11-22T12:29:56;101500.75;;;7.60;55.54
46223;BME280;31943;51.410;7.564;2023-11-22T12:32:24;101504.81;;;7.53;55.45
46223;BME280;31943;51.410;7.564;2023-11-22T12:34:50;101500.81;;;7.41;55.42
46223;BME280;31943;51.410;7.564;2023-11-22T12:37:16;101494.19;;;7.47;55.74
46223;BME280;31943;51.410;7.564;2023-11-22T12:39:42;101488.22;;;7.50;55.74
46223;BME280;31943;51.410;7.564;2023-11-22T12:42:12;101488.78;;;7.43;55.73
46223;BME280;31943;51.410;7.564;2023-11-22T12:44:49;101490.75;;;7.48;55.38
46223;BME280;31943;51.410;7.564;2023-11-22T12:47:15;101494.69;;;7.60;54.72
46223;BME280;31943;51.410;7.564;2023-11-22T12:49:43;101497.63;;;7.67;54.74
46223;BME280;31943;51.410;7.564;2023-11-22T12:52:09;101486.53;;;7.71;53.45
46223;BME280;31943;51.410;7.564;2023-11-22T12:54:36;101486.19;;;7.64;53.33
46223;BME280;31943;51.410;7.564;2023-11-22T12:57:02;101493.75;;;7.58;52.53
46223;BME280;31943;51.410;7.564;2023-11-22T12:59:29;101482.66;;;7.62;51.09
46223;BME280;31943;51.410;7.564;2023-11-22T13:01:56;101472.00;;;7.56;52.14
46223;BME280;31943;51.410;7.564;2023-11-22T13:04:25;101460.16;;;7.62;52.41
46223;BME280;31943;51.410;7.564;2023-11-22T13:06:51;101456.69;;;7.62;52.50
46223;BME280;31943;51.410;7.564;2023-11-22T13:09:17;101453.38;;;7.66;52.61